To NAV CANADA Home Page Login to a new session Search on AWWS site Feedback and Comments Disclaimer Vers la page française équivalente Tips FAQ What's new on the site To the Forecasts and Observations / NOTAM section To "File a Flight Plan" website Publications and other links Update of the User's profile FIC Telephone Numbers My Weather Data Folder Route Weather Data Regional Weather Data Local Weather Data To the Forecasts and Observations / NOTAM section
Request Generated 09/02/2015 at 12:43:59 UTC . Weather information available at that time is displayed.

METAR/TAF

ABBOTSFORD/BC    

METAR CYXX 021200Z 22003KT 10SM FEW006 FEW020 SCT070 10/09 A2980 RMK
SF1SC1AC1 SLP092=
METAR CYXX 021100Z 20004KT 10SM FEW006 SCT020 BKN070 11/10 A2979 RMK
SF1SC2AC2 SLP088=
METAR CYXX 021000Z 16005KT 10SM FEW006 FEW030 SCT070 11/10 A2977 RMK
SF1SC1AC3 SF TR SLP082=

TAF CYXX 021138Z 0212/0312 20005KT P6SM FEW006 SCT020 BKN070
FM021600 20012KT P6SM FEW006 BKN025 TEMPO 0216/0304 4SM -SHRA BR
SCT006 BKN015 PROB30 0216/0304 VRB15G25KT 2SM TSRA BKN030CB
FM030400 20010KT P6SM BKN030 TEMPO 0304/0312 P6SM -SHRA
RMK NXT FCST BY 021800Z=
Your time UTC time
Weather data provided by Environment Canada and NAV CANADA